createdAt,value
2019-05-19T00:00:50.277Z,69.24
2019-05-19T00:03:22.645Z,69.29
2019-05-19T00:05:54.846Z,69.28
2019-05-19T00:08:27.110Z,69.24
2019-05-19T00:10:59.364Z,69.26
2019-05-19T00:13:31.588Z,69.32
2019-05-19T00:16:04.876Z,69.30
2019-05-19T00:18:37.468Z,69.51
2019-05-19T00:21:09.689Z,69.76
2019-05-19T00:23:41.956Z,70.07
2019-05-19T00:26:14.261Z,70.38
2019-05-19T00:28:46.493Z,70.72
2019-05-19T00:31:18.790Z,71.03
2019-05-19T00:33:51.071Z,71.24
2019-05-19T00:36:23.354Z,71.48
2019-05-19T00:38:55.603Z,71.69
2019-05-19T00:41:27.832Z,71.77
2019-05-19T00:44:00.233Z,71.84
2019-05-19T00:46:32.551Z,72.00
2019-05-19T00:49:04.820Z,72.12
2019-05-19T00:51:37.010Z,72.20
2019-05-19T00:54:09.231Z,72.28
2019-05-19T00:56:41.549Z,72.51
2019-05-19T00:59:15.795Z,72.69
2019-05-19T01:01:48.074Z,72.93
2019-05-19T01:04:20.345Z,72.94
2019-05-19T01:06:52.599Z,73.16
2019-05-19T01:09:24.832Z,73.26
2019-05-19T01:11:57.080Z,73.48
2019-05-19T01:14:29.604Z,73.67
2019-05-19T01:17:02.275Z,73.78
2019-05-19T01:19:34.880Z,74.05
2019-05-19T01:22:07.107Z,73.93
2019-05-19T01:24:39.523Z,74.19
2019-05-19T01:27:11.753Z,74.34
2019-05-19T01:29:43.990Z,74.47
2019-05-19T01:32:16.234Z,74.55
2019-05-19T01:34:48.460Z,74.67
2019-05-19T01:37:20.749Z,74.86
2019-05-19T01:39:53.003Z,75.07
2019-05-19T01:42:25.301Z,75.35
2019-05-19T01:44:57.540Z,75.38
2019-05-19T01:47:29.845Z,75.29
2019-05-19T01:50:17.042Z,75.25
2019-05-19T01:52:35.971Z,75.09
2019-05-19T01:55:08.193Z,74.98
2019-05-19T01:57:42.747Z,75.08
2019-05-19T02:00:15.021Z,75.30
2019-05-19T02:02:47.324Z,75.59
2019-05-19T02:05:19.508Z,75.86
2019-05-19T02:07:51.950Z,75.99
2019-05-19T02:10:24.239Z,75.98
2019-05-19T02:12:56.461Z,76.09
2019-05-19T02:15:28.680Z,76.15
2019-05-19T02:18:00.926Z,76.03
2019-05-19T02:20:34.111Z,76.09
2019-05-19T02:23:06.393Z,76.17
2019-05-19T02:25:38.627Z,76.27
2019-05-19T02:28:10.917Z,76.33
2019-05-19T02:30:43.138Z,76.52
2019-05-19T02:33:15.382Z,76.80
2019-05-19T02:35:47.587Z,77.07
2019-05-19T02:38:20.075Z,77.19
2019-05-19T02:40:52.300Z,77.21
2019-05-19T02:43:24.558Z,77.40
2019-05-19T02:45:56.792Z,77.56
2019-05-19T02:48:28.998Z,77.80
2019-05-19T02:51:01.244Z,77.89
2019-05-19T02:53:33.493Z,78.01
2019-05-19T02:56:05.727Z,78.32
2019-05-19T02:58:38.024Z,78.41
2019-05-19T03:01:10.235Z,78.50
2019-05-19T03:03:42.578Z,78.63
2019-05-19T03:06:14.839Z,78.63
2019-05-19T03:08:47.063Z,78.69
2019-05-19T03:11:19.320Z,78.77
2019-05-19T03:13:51.532Z,78.77
2019-05-19T03:16:23.754Z,78.83
2019-05-19T03:18:55.974Z,79.01
2019-05-19T03:21:28.234Z,79.02
2019-05-19T03:24:00.434Z,79.15
2019-05-19T03:26:32.698Z,79.36
2019-05-19T03:29:04.954Z,79.37
2019-05-19T03:31:37.182Z,79.33
2019-05-19T03:34:09.453Z,79.49
2019-05-19T03:36:41.690Z,79.74
2019-05-19T03:39:13.915Z,79.76
2019-05-19T03:41:46.167Z,79.72
2019-05-19T03:44:18.406Z,79.71
2019-05-19T03:46:50.679Z,79.58
2019-05-19T03:49:22.966Z,79.42
2019-05-19T03:51:55.309Z,79.18
2019-05-19T03:54:27.534Z,79.04
2019-05-19T03:57:00.781Z,78.76
2019-05-19T03:59:34.157Z,78.70
2019-05-19T04:02:06.420Z,78.78
2019-05-19T04:04:38.622Z,78.50
2019-05-19T04:07:10.894Z,78.20
2019-05-19T04:09:43.120Z,78.12
2019-05-19T04:12:15.360Z,78.21
2019-05-19T04:14:47.605Z,78.28
2019-05-19T04:17:20.799Z,78.31
2019-05-19T04:19:53.076Z,78.18
2019-05-19T04:22:25.301Z,78.37
2019-05-19T04:24:57.522Z,78.53
2019-05-19T04:27:29.782Z,78.62
2019-05-19T04:30:02.050Z,78.74
2019-05-19T04:32:34.881Z,78.73
2019-05-19T04:35:07.139Z,78.83
2019-05-19T04:37:39.355Z,78.76
2019-05-19T04:40:11.572Z,78.63
2019-05-19T04:42:43.814Z,78.43
2019-05-19T04:45:16.069Z,78.17
2019-05-19T04:47:48.308Z,78.05
2019-05-19T04:50:20.650Z,77.97
2019-05-19T04:52:52.885Z,77.85
2019-05-19T04:55:25.182Z,78.05
2019-05-19T04:57:57.407Z,78.20
2019-05-19T05:00:29.675Z,78.26
2019-05-19T05:03:01.919Z,77.89
2019-05-19T05:05:34.185Z,77.74
2019-05-19T05:08:06.408Z,77.55
2019-05-19T05:10:38.640Z,77.38
2019-05-19T05:13:10.866Z,77.38
2019-05-19T05:15:43.144Z,77.35
2019-05-19T05:18:17.421Z,77.08
2019-05-19T05:20:49.706Z,77.02
2019-05-19T05:23:22.009Z,76.76
2019-05-19T05:25:54.442Z,76.68
2019-05-19T05:28:26.651Z,76.58
2019-05-19T05:30:59.108Z,76.43
2019-05-19T05:33:31.329Z,76.25
2019-05-19T05:36:03.560Z,76.26
2019-05-19T05:38:35.772Z,76.06
2019-05-19T05:41:08.026Z,75.73
2019-05-19T05:43:41.324Z,75.63
2019-05-19T05:46:13.560Z,75.36
2019-05-19T05:48:45.798Z,75.35
2019-05-19T05:51:18.033Z,75.50
2019-05-19T05:53:50.238Z,75.30
2019-05-19T05:56:22.468Z,74.86
2019-05-19T05:58:54.758Z,74.75
2019-05-19T06:01:26.962Z,74.62
2019-05-19T06:03:59.215Z,74.30
2019-05-19T06:06:33.479Z,74.36
2019-05-19T06:09:05.789Z,74.22
2019-05-19T06:11:38.028Z,73.81
2019-05-19T06:14:10.280Z,73.71
2019-05-19T06:16:43.628Z,73.77
2019-05-19T06:19:15.845Z,74.19
2019-05-19T06:21:48.087Z,73.92
2019-05-19T06:24:20.323Z,73.80
2019-05-19T06:26:52.539Z,73.93
2019-05-19T06:29:24.829Z,73.41
2019-05-19T06:31:57.067Z,73.55
2019-05-19T06:34:29.614Z,73.17
2019-05-19T06:37:02.113Z,73.00
2019-05-19T06:39:34.428Z,73.07
2019-05-19T06:42:06.631Z,73.06
2019-05-19T06:44:38.831Z,72.56
2019-05-19T06:47:11.173Z,72.69
2019-05-19T06:49:43.394Z,72.63
2019-05-19T06:52:15.615Z,72.48
2019-05-19T06:54:47.870Z,72.09
2019-05-19T06:57:20.098Z,71.74
2019-05-19T06:59:52.307Z,72.05
2019-05-19T07:02:24.592Z,72.03
2019-05-19T07:04:56.781Z,72.08
2019-05-19T07:07:29.028Z,71.32
2019-05-19T07:10:02.844Z,71.21
2019-05-19T07:12:36.132Z,70.72
2019-05-19T07:15:08.469Z,70.22
2019-05-19T07:17:40.738Z,69.77
2019-05-19T07:20:12.965Z,70.05
2019-05-19T07:22:45.191Z,70.45
2019-05-19T07:25:17.288Z,70.60
2019-05-19T07:27:49.631Z,70.36
2019-05-19T07:30:21.922Z,70.42
2019-05-19T07:32:54.178Z,70.55
2019-05-19T07:35:26.497Z,70.68
2019-05-19T07:37:58.924Z,70.33
2019-05-19T07:40:31.157Z,70.12
2019-05-19T07:43:03.395Z,69.99
2019-05-19T07:45:35.706Z,69.32
2019-05-19T07:48:07.972Z,69.31
2019-05-19T07:50:40.142Z,69.06
2019-05-19T07:53:12.420Z,69.34
2019-05-19T07:55:44.662Z,69.19
2019-05-19T07:58:16.937Z,68.79
2019-05-19T08:00:49.187Z,68.53
2019-05-19T08:03:21.404Z,68.50
2019-05-19T08:05:56.794Z,68.34
2019-05-19T08:08:27.561Z,68.44
2019-05-19T08:10:59.805Z,67.55
2019-05-19T08:13:32.097Z,67.65
2019-05-19T08:16:04.441Z,66.80
2019-05-19T08:18:36.643Z,66.73
2019-05-19T08:21:08.881Z,66.06
2019-05-19T08:23:41.132Z,64.97
2019-05-19T08:26:13.410Z,64.68
2019-05-19T08:28:45.720Z,65.18
2019-05-19T08:31:17.938Z,64.70
2019-05-19T08:33:50.219Z,64.36
2019-05-19T08:36:22.471Z,64.19
2019-05-19T08:38:54.584Z,63.82
2019-05-19T08:41:26.828Z,63.40
2019-05-19T08:43:59.128Z,61.67
2019-05-19T08:46:31.382Z,61.39
2019-05-19T08:49:03.785Z,60.86
2019-05-19T08:51:38.253Z,60.49
2019-05-19T08:54:15.136Z,62.03
2019-05-19T08:56:44.441Z,61.47
2019-05-19T08:59:16.988Z,60.96
2019-05-19T09:01:49.215Z,61.08
2019-05-19T09:04:21.477Z,61.41
2019-05-19T09:06:53.778Z,61.35
2019-05-19T09:09:26.192Z,60.07
2019-05-19T09:11:58.437Z,61.21
2019-05-19T09:14:30.724Z,60.71
2019-05-19T09:17:03.025Z,59.38
2019-05-19T09:19:35.558Z,59.61
2019-05-19T09:22:07.801Z,59.85
2019-05-19T09:24:40.032Z,59.59
2019-05-19T09:27:12.408Z,59.12
2019-05-19T09:29:44.648Z,59.90
2019-05-19T09:32:16.873Z,59.46
2019-05-19T09:34:49.178Z,59.88
2019-05-19T09:37:21.453Z,59.71
2019-05-19T09:39:53.744Z,60.17
2019-05-19T09:42:26.010Z,60.51
2019-05-19T09:44:58.381Z,59.56
2019-05-19T09:47:30.702Z,60.10
2019-05-19T09:50:02.946Z,60.42
2019-05-19T09:52:35.163Z,60.37
2019-05-19T09:55:07.236Z,60.36
2019-05-19T09:57:40.507Z,60.46
2019-05-19T10:00:12.805Z,60.47
2019-05-19T10:02:45.117Z,60.45
2019-05-19T10:05:17.561Z,59.71
2019-05-19T10:07:49.883Z,59.56
2019-05-19T10:10:22.182Z,59.50
2019-05-19T10:12:54.602Z,58.91
2019-05-19T10:15:26.906Z,58.25
2019-05-19T10:17:59.141Z,58.72
2019-05-19T10:20:31.407Z,59.90
2019-05-19T10:23:03.756Z,60.54
2019-05-19T10:25:36.067Z,61.44
2019-05-19T10:28:08.329Z,60.13
2019-05-19T10:30:40.886Z,60.16
2019-05-19T10:33:13.118Z,60.07
2019-05-19T10:35:45.368Z,60.75
2019-05-19T10:38:17.939Z,60.33
2019-05-19T10:40:51.312Z,60.25
2019-05-19T10:43:23.768Z,59.67
2019-05-19T10:45:56.019Z,60.42
2019-05-19T10:48:28.328Z,60.45
2019-05-19T10:51:00.557Z,60.11
2019-05-19T10:53:32.838Z,60.10
2019-05-19T10:56:05.316Z,59.49
2019-05-19T10:58:37.621Z,59.84
2019-05-19T11:01:09.898Z,59.70
2019-05-19T11:03:42.361Z,59.91
2019-05-19T11:06:14.724Z,59.58
2019-05-19T11:08:47.022Z,59.79
2019-05-19T11:11:19.309Z,59.74
2019-05-19T11:13:51.672Z,60.12
2019-05-19T11:16:23.891Z,59.97
2019-05-19T11:18:56.124Z,59.48
2019-05-19T11:21:28.397Z,59.44
2019-05-19T11:24:00.752Z,60.00
2019-05-19T11:26:33.117Z,58.25
2019-05-19T11:29:05.359Z,58.30
2019-05-19T11:31:37.619Z,57.92
2019-05-19T11:34:09.986Z,56.32
2019-05-19T11:36:42.309Z,56.59
2019-05-19T11:39:14.544Z,55.32
2019-05-19T11:41:46.795Z,54.93
2019-05-19T11:44:19.198Z,54.17
2019-05-19T11:46:51.429Z,54.08
2019-05-19T11:49:23.721Z,52.50
2019-05-19T11:51:55.920Z,52.21
2019-05-19T11:54:28.187Z,48.30
2019-05-19T11:57:00.566Z,46.96
2019-05-19T11:59:32.804Z,44.55
2019-05-19T12:02:04.858Z,41.24
2019-05-19T12:04:37.740Z,41.13
2019-05-19T12:07:10.564Z,40.33
2019-05-19T12:09:43.468Z,38.03
2019-05-19T12:12:16.307Z,38.83
2019-05-19T12:14:49.351Z,36.47
2019-05-19T12:17:22.169Z,36.25
2019-05-19T12:19:55.270Z,35.61
2019-05-19T12:22:28.205Z,35.14
2019-05-19T12:25:01.044Z,33.51
2019-05-19T12:27:33.896Z,32.70
2019-05-19T12:30:06.724Z,32.24
2019-05-19T12:32:39.775Z,32.33
2019-05-19T12:35:12.602Z,32.33
2019-05-19T12:37:45.548Z,30.08
2019-05-19T12:40:18.431Z,30.15
2019-05-19T12:42:51.385Z,30.67
2019-05-19T12:45:26.691Z,30.95
2019-05-19T12:47:59.543Z,29.17
2019-05-19T12:50:32.353Z,29.77
2019-05-19T12:53:05.320Z,29.43
2019-05-19T12:55:38.056Z,29.95
2019-05-19T12:58:11.500Z,30.15
2019-05-19T13:00:44.386Z,31.68
2019-05-19T13:03:18.857Z,32.38
2019-05-19T13:05:51.791Z,34.17
2019-05-19T13:08:24.797Z,37.61
2019-05-19T13:10:57.447Z,39.78
2019-05-19T13:13:30.237Z,40.01
2019-05-19T13:16:03.140Z,39.89
2019-05-19T13:18:38.255Z,37.61
2019-05-19T13:21:11.076Z,35.25
2019-05-19T13:23:43.940Z,33.87
2019-05-19T13:26:16.811Z,33.09
2019-05-19T13:28:49.680Z,31.79
2019-05-19T13:31:24.542Z,29.56
2019-05-19T13:33:57.482Z,30.48
2019-05-19T13:36:30.336Z,29.67
2019-05-19T13:39:03.190Z,30.95
2019-05-19T13:41:36.983Z,31.83
2019-05-19T13:44:09.858Z,34.40
2019-05-19T13:46:42.649Z,36.34
2019-05-19T13:49:15.603Z,35.64
2019-05-19T13:51:48.420Z,33.13
2019-05-19T13:54:21.316Z,33.21
2019-05-19T13:56:54.181Z,31.53
2019-05-19T13:59:26.980Z,31.28
2019-05-19T14:01:59.850Z,31.37
2019-05-19T14:04:32.927Z,33.39
2019-05-19T14:07:05.914Z,36.06
2019-05-19T14:09:38.226Z,37.57
2019-05-19T14:12:10.493Z,39.13
2019-05-19T14:14:42.702Z,40.85
2019-05-19T14:17:15.158Z,41.64
2019-05-19T14:19:47.433Z,42.44
2019-05-19T14:22:19.687Z,42.83
2019-05-19T14:24:51.928Z,43.95
2019-05-19T14:27:30.580Z,44.29
2019-05-19T14:29:58.197Z,44.88
2019-05-19T14:32:30.548Z,44.65
2019-05-19T14:35:02.787Z,45.16
2019-05-19T14:37:35.004Z,45.63
2019-05-19T14:40:07.495Z,45.84
2019-05-19T14:42:41.764Z,46.70
2019-05-19T14:45:14.084Z,46.65
2019-05-19T14:47:46.314Z,47.14
2019-05-19T14:50:18.604Z,47.21
2019-05-19T14:52:50.851Z,47.31
2019-05-19T14:55:23.088Z,48.08
2019-05-19T14:57:55.382Z,48.43
2019-05-19T15:00:27.616Z,47.28
2019-05-19T15:02:59.838Z,47.70
2019-05-19T15:05:32.142Z,48.57
2019-05-19T15:08:04.810Z,48.36
2019-05-19T15:10:37.265Z,48.77
2019-05-19T15:13:09.533Z,49.29
2019-05-19T15:15:41.781Z,49.60
2019-05-19T15:18:16.384Z,49.58
2019-05-19T15:20:48.589Z,50.23
2019-05-19T15:23:20.874Z,51.14
2019-05-19T15:25:53.072Z,51.38
2019-05-19T15:28:25.314Z,52.17
2019-05-19T15:30:57.592Z,52.30
2019-05-19T15:33:37.755Z,52.55
2019-05-19T15:36:03.941Z,52.88
2019-05-19T15:38:36.224Z,53.20
2019-05-19T15:41:08.482Z,53.61
2019-05-19T15:43:40.688Z,53.87
2019-05-19T15:46:12.948Z,53.94
2019-05-19T15:48:45.230Z,54.58
2019-05-19T15:51:27.841Z,54.96
2019-05-19T15:53:51.435Z,54.71
2019-05-19T15:56:23.677Z,54.71
2019-05-19T15:58:56.002Z,54.88
2019-05-19T16:01:28.229Z,54.29
2019-05-19T16:04:00.446Z,54.42
2019-05-19T16:06:32.685Z,54.75
2019-05-19T16:09:04.934Z,54.70
2019-05-19T16:11:38.787Z,54.54
2019-05-19T16:14:11.026Z,54.70
2019-05-19T16:16:43.280Z,54.24
2019-05-19T16:19:15.550Z,54.74
2019-05-19T16:21:47.953Z,54.47
2019-05-19T16:24:20.264Z,53.98
2019-05-19T16:26:52.947Z,53.64
2019-05-19T16:29:29.742Z,53.58
2019-05-19T16:32:02.018Z,52.96
2019-05-19T16:34:35.994Z,53.04
2019-05-19T16:37:08.522Z,52.92
2019-05-19T16:39:41.445Z,52.96
2019-05-19T16:42:13.676Z,53.64
2019-05-19T16:44:45.988Z,54.13
2019-05-19T16:47:18.261Z,53.47
2019-05-19T16:49:51.514Z,53.29
2019-05-19T16:52:23.870Z,52.14
2019-05-19T16:54:56.203Z,50.40
2019-05-19T16:57:28.692Z,47.41
2019-05-19T17:00:00.708Z,44.64
2019-05-19T17:02:34.718Z,44.74
2019-05-19T17:05:07.007Z,42.37
2019-05-19T17:07:39.570Z,41.80
2019-05-19T17:10:11.848Z,42.35
2019-05-19T17:12:44.183Z,41.79
2019-05-19T17:15:17.585Z,43.46
2019-05-19T17:17:49.636Z,45.74
2019-05-19T17:20:22.116Z,47.42
2019-05-19T17:22:54.648Z,48.75
2019-05-19T17:25:27.699Z,48.88
2019-05-19T17:28:00.024Z,49.76
2019-05-19T17:30:32.719Z,51.79
2019-05-19T17:33:04.994Z,53.30
2019-05-19T17:35:37.319Z,54.61
2019-05-19T17:38:09.575Z,55.57
2019-05-19T17:40:41.884Z,56.88
2019-05-19T17:43:14.123Z,58.10
2019-05-19T17:45:46.568Z,58.91
2019-05-19T17:48:26.065Z,59.31
2019-05-19T17:50:52.786Z,60.49
2019-05-19T17:53:25.012Z,62.12
2019-05-19T17:55:57.349Z,63.12
2019-05-19T17:58:29.662Z,63.85
2019-05-19T18:01:02.152Z,64.39
2019-05-19T18:03:34.646Z,65.68
2019-05-19T18:06:06.864Z,66.36
2019-05-19T18:08:39.155Z,67.00
2019-05-19T18:11:11.420Z,67.84
2019-05-19T18:13:43.729Z,68.65
2019-05-19T18:16:15.941Z,69.07
2019-05-19T18:18:48.195Z,69.49
2019-05-19T18:21:20.430Z,69.57
2019-05-19T18:23:52.660Z,69.83
2019-05-19T18:26:24.932Z,69.65
2019-05-19T18:28:57.159Z,69.55
2019-05-19T18:31:31.247Z,69.69
2019-05-19T18:34:03.959Z,69.86
2019-05-19T18:36:36.205Z,70.29
2019-05-19T18:39:08.755Z,70.19
2019-05-19T18:41:41.024Z,69.90
2019-05-19T18:44:13.274Z,70.04
2019-05-19T18:46:45.517Z,70.05
2019-05-19T18:49:17.742Z,69.98
2019-05-19T18:51:49.983Z,70.51
2019-05-19T18:54:22.291Z,71.08
2019-05-19T18:56:54.552Z,71.30
2019-05-19T18:59:26.837Z,71.50
2019-05-19T19:02:01.361Z,71.59
2019-05-19T19:04:33.908Z,71.80
2019-05-19T19:07:06.117Z,71.63
2019-05-19T19:09:38.409Z,71.46
2019-05-19T19:12:10.749Z,71.62
2019-05-19T19:14:42.979Z,71.83
2019-05-19T19:17:15.272Z,71.87
2019-05-19T19:19:47.523Z,71.88
2019-05-19T19:22:21.795Z,71.92
2019-05-19T19:24:54.074Z,72.01
2019-05-19T19:27:28.559Z,71.59
2019-05-19T19:30:04.005Z,71.24
2019-05-19T19:32:34.861Z,70.88
2019-05-19T19:35:07.133Z,71.23
2019-05-19T19:37:39.419Z,71.04
2019-05-19T19:40:11.724Z,71.18
2019-05-19T19:42:44.057Z,71.14
2019-05-19T19:45:16.350Z,71.49
2019-05-19T19:47:48.600Z,71.66
2019-05-19T19:50:20.844Z,71.18
2019-05-19T19:52:53.040Z,71.16
2019-05-19T19:55:25.286Z,71.48
2019-05-19T19:57:57.574Z,71.52
2019-05-19T20:00:29.913Z,71.50
2019-05-19T20:03:02.209Z,71.71
2019-05-19T20:05:34.475Z,71.52
2019-05-19T20:08:06.946Z,71.42
2019-05-19T20:10:39.241Z,71.29
2019-05-19T20:13:11.534Z,71.65
2019-05-19T20:15:43.968Z,71.82
2019-05-19T20:18:16.413Z,72.18
2019-05-19T20:20:48.843Z,72.54
2019-05-19T20:23:21.124Z,72.75
2019-05-19T20:25:53.438Z,73.04
2019-05-19T20:28:25.688Z,73.23
2019-05-19T20:30:58.058Z,73.33
2019-05-19T20:33:30.549Z,73.60
2019-05-19T20:36:02.914Z,73.63
2019-05-19T20:38:35.173Z,73.52
2019-05-19T20:41:07.450Z,73.54
2019-05-19T20:43:39.848Z,73.75
2019-05-19T20:46:12.082Z,73.77
2019-05-19T20:48:44.357Z,73.97
2019-05-19T20:51:16.611Z,74.14
2019-05-19T20:53:49.013Z,74.28
2019-05-19T20:56:21.270Z,74.42
2019-05-19T20:58:53.574Z,74.40
2019-05-19T21:01:26.066Z,74.41
2019-05-19T21:03:58.304Z,74.51
2019-05-19T21:06:30.632Z,74.56
2019-05-19T21:09:02.873Z,74.19
2019-05-19T21:11:36.565Z,74.33
2019-05-19T21:14:08.834Z,74.52
2019-05-19T21:16:41.130Z,73.97
2019-05-19T21:19:15.075Z,74.02
2019-05-19T21:21:47.292Z,74.04
2019-05-19T21:24:19.527Z,74.03
2019-05-19T21:26:51.823Z,73.96
2019-05-19T21:29:24.102Z,74.19
2019-05-19T21:31:56.315Z,74.33
2019-05-19T21:34:28.570Z,74.68
2019-05-19T21:37:00.796Z,74.97
2019-05-19T21:39:33.024Z,74.86
2019-05-19T21:42:05.337Z,75.09
2019-05-19T21:44:37.645Z,75.07
2019-05-19T21:47:09.889Z,74.87
2019-05-19T21:49:42.136Z,74.71
2019-05-19T21:52:14.410Z,74.76
2019-05-19T21:54:46.655Z,74.94
2019-05-19T21:57:18.919Z,74.64
2019-05-19T21:59:51.319Z,74.40
2019-05-19T22:02:23.601Z,74.31
2019-05-19T22:04:55.883Z,74.44
2019-05-19T22:07:28.104Z,74.12
2019-05-19T22:10:00.343Z,73.83
2019-05-19T22:12:32.617Z,73.76
2019-05-19T22:15:05.903Z,73.97
2019-05-19T22:17:38.330Z,74.05
2019-05-19T22:20:10.548Z,73.91
2019-05-19T22:22:43.891Z,73.66
2019-05-19T22:25:15.998Z,73.80
2019-05-19T22:27:48.338Z,73.99
2019-05-19T22:30:20.610Z,73.82
2019-05-19T22:32:52.853Z,73.63
2019-05-19T22:35:25.095Z,73.10
2019-05-19T22:37:57.427Z,73.38
2019-05-19T22:40:29.457Z,73.77
2019-05-19T22:43:01.699Z,74.04
2019-05-19T22:45:33.940Z,74.56
2019-05-19T22:48:06.167Z,74.81
2019-05-19T22:50:38.444Z,74.48
2019-05-19T22:53:10.664Z,74.41
2019-05-19T22:55:42.866Z,74.20
2019-05-19T22:58:15.155Z,74.38
2019-05-19T23:00:47.402Z,74.60
2019-05-19T23:03:19.639Z,74.99
2019-05-19T23:05:51.885Z,75.07
2019-05-19T23:08:23.963Z,75.02
2019-05-19T23:10:56.170Z,75.22
2019-05-19T23:13:28.577Z,74.89
2019-05-19T23:16:00.872Z,74.74
2019-05-19T23:18:33.382Z,74.38
2019-05-19T23:21:05.631Z,74.32
2019-05-19T23:23:37.937Z,74.48
2019-05-19T23:26:10.160Z,74.55
2019-05-19T23:28:43.449Z,74.37
2019-05-19T23:31:15.664Z,74.28
2019-05-19T23:33:47.892Z,74.22
2019-05-19T23:36:20.121Z,74.73
2019-05-19T23:38:52.358Z,74.79
2019-05-19T23:41:24.669Z,74.90
2019-05-19T23:43:56.959Z,75.24
2019-05-19T23:46:30.021Z,75.29
2019-05-19T23:49:02.322Z,74.95
2019-05-19T23:51:34.583Z,74.79
2019-05-19T23:54:07.877Z,75.07
2019-05-19T23:56:40.124Z,75.35
2019-05-19T23:59:12.345Z,75.17
